createdAt,value
2023-05-06T00:00:17.572Z,852.00
2023-05-06T00:01:17.578Z,853.00
2023-05-06T00:02:17.525Z,854.00
2023-05-06T00:03:17.475Z,854.00
2023-05-06T00:04:17.386Z,852.00
2023-05-06T00:05:17.323Z,848.00
2023-05-06T00:06:17.294Z,850.00
2023-05-06T00:07:17.236Z,850.00
2023-05-06T00:08:17.190Z,851.00
2023-05-06T00:09:17.147Z,851.00
2023-05-06T00:10:17.112Z,853.00
2023-05-06T00:11:17.063Z,854.00
2023-05-06T00:12:17.173Z,853.00
2023-05-06T00:13:16.996Z,853.00
2023-05-06T00:14:16.913Z,853.00
2023-05-06T00:15:16.864Z,852.00
2023-05-06T00:16:16.841Z,851.00
2023-05-06T00:17:16.789Z,850.00
2023-05-06T00:18:16.752Z,851.00
2023-05-06T00:19:16.716Z,854.00
2023-05-06T00:20:16.660Z,853.00
2023-05-06T00:21:16.610Z,856.00
2023-05-06T00:22:16.587Z,857.00
2023-05-06T00:23:16.539Z,855.00
2023-05-06T00:24:16.497Z,851.00
2023-05-06T00:25:16.449Z,848.00
2023-05-06T00:26:16.411Z,848.00
2023-05-06T00:27:16.377Z,849.00
2023-05-06T00:28:16.350Z,852.00
2023-05-06T00:29:16.291Z,852.00
2023-05-06T00:30:16.248Z,852.00
2023-05-06T00:31:16.217Z,853.00
2023-05-06T00:32:16.155Z,854.00
2023-05-06T00:33:16.131Z,856.00
2023-05-06T00:34:16.061Z,856.00
2023-05-06T00:35:16.035Z,857.00
2023-05-06T00:36:15.991Z,857.00
2023-05-06T00:37:15.954Z,858.00
2023-05-06T00:38:15.903Z,855.00
2023-05-06T00:39:15.860Z,855.00
2023-05-06T00:40:15.843Z,850.00
2023-05-06T00:41:15.768Z,851.00
2023-05-06T00:42:15.723Z,851.00
2023-05-06T00:43:15.682Z,853.00
2023-05-06T00:44:15.690Z,853.00
2023-05-06T00:45:15.600Z,852.00
2023-05-06T00:46:15.563Z,850.00
2023-05-06T00:47:15.512Z,854.00
2023-05-06T00:48:15.514Z,854.00
2023-05-06T00:49:15.429Z,853.00
2023-05-06T00:50:15.385Z,853.00
2023-05-06T00:51:15.341Z,848.00
2023-05-06T00:52:15.297Z,846.00
2023-05-06T00:53:15.251Z,846.00
2023-05-06T00:54:15.218Z,846.00
2023-05-06T00:55:15.169Z,847.00
2023-05-06T00:56:15.127Z,848.00
2023-05-06T00:57:15.101Z,850.00
2023-05-06T00:58:15.076Z,849.00
2023-05-06T00:59:14.973Z,848.00
2023-05-06T01:00:14.961Z,850.00
2023-05-06T01:01:14.889Z,850.00
2023-05-06T01:02:14.875Z,849.00
2023-05-06T01:03:14.912Z,847.00
2023-05-06T01:04:14.726Z,847.00
2023-05-06T01:05:14.712Z,846.00
2023-05-06T01:06:14.633Z,848.00
2023-05-06T01:07:14.593Z,846.00
2023-05-06T01:08:14.523Z,846.00
2023-05-06T01:09:14.473Z,846.00
2023-05-06T01:10:14.426Z,846.00
2023-05-06T01:11:15.812Z,843.00
2023-05-06T01:12:14.325Z,842.00
2023-05-06T01:13:14.323Z,842.00
2023-05-06T01:14:14.204Z,842.00
2023-05-06T01:15:14.152Z,842.00
2023-05-06T01:16:14.115Z,842.00
2023-05-06T01:17:14.189Z,843.00
2023-05-06T01:18:14.012Z,845.00
2023-05-06T01:19:13.955Z,846.00
2023-05-06T01:20:13.921Z,848.00
2023-05-06T01:21:13.917Z,848.00
2023-05-06T01:22:13.813Z,849.00
2023-05-06T01:23:13.762Z,848.00
2023-05-06T01:24:13.720Z,850.00
2023-05-06T01:25:13.679Z,850.00
2023-05-06T01:26:13.622Z,846.00
2023-05-06T01:27:13.649Z,845.00
2023-05-06T01:28:13.527Z,844.00
2023-05-06T01:29:13.469Z,844.00
2023-05-06T01:30:13.433Z,844.00
2023-05-06T01:31:13.469Z,842.00
2023-05-06T01:32:13.400Z,840.00
2023-05-06T01:33:13.264Z,840.00
2023-05-06T01:34:13.216Z,841.00
2023-05-06T01:35:13.253Z,841.00
2023-05-06T01:36:13.128Z,843.00
2023-05-06T01:37:13.091Z,843.00
2023-05-06T01:38:13.048Z,844.00
2023-05-06T01:39:13.000Z,844.00
2023-05-06T01:40:12.953Z,843.00
2023-05-06T01:41:12.918Z,842.00
2023-05-06T01:42:12.887Z,841.00
2023-05-06T01:43:12.832Z,840.00
2023-05-06T01:44:12.775Z,837.00
2023-05-06T01:45:12.731Z,840.00
2023-05-06T01:46:12.690Z,839.00
2023-05-06T01:47:12.620Z,839.00
2023-05-06T01:48:12.583Z,839.00
2023-05-06T01:49:12.522Z,840.00
2023-05-06T01:50:12.492Z,839.00
2023-05-06T01:51:12.431Z,837.00
2023-05-06T01:52:12.325Z,837.00
2023-05-06T01:53:12.282Z,835.00
2023-05-06T01:54:12.199Z,837.00
2023-05-06T01:55:12.204Z,836.00
2023-05-06T01:56:12.093Z,835.00
2023-05-06T01:57:12.037Z,834.00
2023-05-06T01:58:11.995Z,834.00
2023-05-06T01:59:11.953Z,834.00
2023-05-06T02:00:11.914Z,830.00
2023-05-06T02:01:11.954Z,831.00
2023-05-06T02:02:11.818Z,831.00
2023-05-06T02:03:11.871Z,826.00
2023-05-06T02:04:11.738Z,823.00
2023-05-06T02:05:11.680Z,826.00
2023-05-06T02:06:11.559Z,828.00
2023-05-06T02:07:11.514Z,827.00
2023-05-06T02:08:11.464Z,827.00
2023-05-06T02:09:11.393Z,830.00
2023-05-06T02:10:11.334Z,832.00
2023-05-06T02:11:11.249Z,830.00
2023-05-06T02:12:11.182Z,826.00
2023-05-06T02:13:11.235Z,824.00
2023-05-06T02:14:11.093Z,824.00
2023-05-06T02:15:11.234Z,824.00
2023-05-06T02:16:11.022Z,823.00
2023-05-06T02:17:10.926Z,823.00
2023-05-06T02:18:10.876Z,825.00
2023-05-06T02:19:10.817Z,825.00
2023-05-06T02:20:10.889Z,822.00
2023-05-06T02:21:10.728Z,824.00
2023-05-06T02:22:10.710Z,825.00
2023-05-06T02:23:10.634Z,823.00
2023-05-06T02:24:10.577Z,821.00
2023-05-06T02:25:10.767Z,820.00
2023-05-06T02:26:10.491Z,818.00
2023-05-06T02:27:10.444Z,818.00
2023-05-06T02:28:10.454Z,821.00
2023-05-06T02:29:10.378Z,822.00
2023-05-06T02:30:10.355Z,822.00
2023-05-06T02:31:10.331Z,825.00
2023-05-06T02:32:10.273Z,826.00
2023-05-06T02:33:10.235Z,826.00
2023-05-06T02:34:10.205Z,828.00
2023-05-06T02:35:10.346Z,829.00
2023-05-06T02:36:10.178Z,829.00
2023-05-06T02:37:10.101Z,827.00
2023-05-06T02:38:10.068Z,824.00
2023-05-06T02:39:09.995Z,824.00
2023-05-06T02:40:09.957Z,825.00
2023-05-06T02:41:09.907Z,825.00
2023-05-06T02:42:09.863Z,826.00
2023-05-06T02:43:09.845Z,826.00
2023-05-06T02:44:09.797Z,826.00
2023-05-06T02:45:09.917Z,824.00
2023-05-06T02:46:09.737Z,825.00
2023-05-06T02:47:09.651Z,827.00
2023-05-06T02:48:09.604Z,824.00
2023-05-06T02:49:09.535Z,822.00
2023-05-06T02:50:09.509Z,824.00
2023-05-06T02:51:09.419Z,821.00
2023-05-06T02:52:09.365Z,818.00
2023-05-06T02:53:09.294Z,818.00
2023-05-06T02:54:09.206Z,816.00
2023-05-06T02:55:09.251Z,816.00
2023-05-06T02:56:09.076Z,816.00
2023-05-06T02:57:09.027Z,817.00
2023-05-06T02:58:09.012Z,820.00
2023-05-06T02:59:08.984Z,821.00
2023-05-06T03:00:08.902Z,821.00
2023-05-06T03:01:08.869Z,821.00
2023-05-06T03:02:08.691Z,818.00
2023-05-06T03:03:08.704Z,816.00
2023-05-06T03:04:08.572Z,820.00
2023-05-06T03:05:08.577Z,822.00
2023-05-06T03:06:08.359Z,822.00
2023-05-06T03:07:08.316Z,824.00
2023-05-06T03:08:08.364Z,825.00
2023-05-06T03:09:08.204Z,825.00
2023-05-06T03:10:08.126Z,825.00
2023-05-06T03:11:08.374Z,822.00
2023-05-06T03:12:08.010Z,818.00
2023-05-06T03:13:08.006Z,821.00
2023-05-06T03:14:07.913Z,820.00
2023-05-06T03:15:08.004Z,818.00
2023-05-06T03:16:07.864Z,818.00
2023-05-06T03:17:07.893Z,816.00
2023-05-06T03:18:07.877Z,815.00
2023-05-06T03:19:07.813Z,814.00
2023-05-06T03:20:07.697Z,815.00
2023-05-06T03:21:07.671Z,817.00
2023-05-06T03:22:07.556Z,816.00
2023-05-06T03:23:07.515Z,814.00
2023-05-06T03:24:07.455Z,814.00
2023-05-06T03:25:07.394Z,813.00
2023-05-06T03:26:07.275Z,816.00
2023-05-06T03:27:07.188Z,817.00
2023-05-06T03:28:07.135Z,818.00
2023-05-06T03:29:07.126Z,818.00
2023-05-06T03:30:07.120Z,820.00
2023-05-06T03:31:07.083Z,823.00
2023-05-06T03:32:06.955Z,822.00
2023-05-06T03:33:06.934Z,821.00
2023-05-06T03:34:06.813Z,821.00
2023-05-06T03:35:06.742Z,822.00
2023-05-06T03:36:06.660Z,820.00
2023-05-06T03:37:06.590Z,819.00
2023-05-06T03:38:06.545Z,821.00
2023-05-06T03:39:06.479Z,819.00
2023-05-06T03:40:06.400Z,820.00
2023-05-06T03:41:06.304Z,821.00
2023-05-06T03:42:07.817Z,821.00
2023-05-06T03:43:06.151Z,819.00
2023-05-06T03:44:06.034Z,814.00
2023-05-06T03:45:05.985Z,814.00
2023-05-06T03:46:05.840Z,817.00
2023-05-06T03:47:05.715Z,816.00
2023-05-06T03:48:05.638Z,819.00
2023-05-06T03:49:05.498Z,820.00
2023-05-06T03:50:05.526Z,820.00
2023-05-06T03:51:05.270Z,824.00
2023-05-06T03:52:05.168Z,821.00
2023-05-06T03:53:05.048Z,821.00
2023-05-06T03:54:04.940Z,822.00
2023-05-06T03:55:04.836Z,823.00
2023-05-06T03:56:04.722Z,824.00
2023-05-06T03:57:04.608Z,822.00
2023-05-06T03:58:04.494Z,823.00
2023-05-06T03:59:04.379Z,820.00
2023-05-06T04:00:04.259Z,819.00
2023-05-06T04:01:04.147Z,818.00
2023-05-06T04:02:04.047Z,819.00
2023-05-06T04:03:03.969Z,819.00
2023-05-06T04:04:03.848Z,818.00
2023-05-06T04:05:03.694Z,816.00
2023-05-06T04:06:03.624Z,817.00
2023-05-06T04:07:03.551Z,816.00
2023-05-06T04:08:03.375Z,815.00
2023-05-06T04:09:03.244Z,814.00
2023-05-06T04:10:03.132Z,813.00
2023-05-06T04:11:03.016Z,814.00
2023-05-06T04:12:02.970Z,816.00
2023-05-06T04:13:02.841Z,817.00
2023-05-06T04:14:02.686Z,817.00
2023-05-06T04:15:02.588Z,816.00
2023-05-06T04:16:02.488Z,814.00
2023-05-06T04:17:02.356Z,816.00
2023-05-06T04:18:02.258Z,815.00
2023-05-06T04:19:03.769Z,813.00
2023-05-06T04:20:02.036Z,816.00
2023-05-06T04:21:01.926Z,814.00
2023-05-06T04:22:01.792Z,815.00
2023-05-06T04:23:01.695Z,814.00
2023-05-06T04:24:01.589Z,813.00
2023-05-06T04:25:01.490Z,816.00
2023-05-06T04:26:01.376Z,815.00
2023-05-06T04:27:01.267Z,818.00
2023-05-06T04:28:01.166Z,819.00
2023-05-06T04:29:01.051Z,823.00
2023-05-06T04:30:01.250Z,822.00
2023-05-06T04:31:00.823Z,823.00
2023-05-06T04:32:00.786Z,824.00
2023-05-06T04:33:00.627Z,824.00
2023-05-06T04:34:00.499Z,822.00
2023-05-06T04:35:00.388Z,821.00
2023-05-06T04:36:00.281Z,821.00
2023-05-06T04:37:00.175Z,816.00
2023-05-06T04:38:00.108Z,814.00
2023-05-06T04:38:59.972Z,815.00
2023-05-06T04:39:59.873Z,815.00
2023-05-06T04:40:59.778Z,814.00
2023-05-06T04:41:59.645Z,814.00
2023-05-06T04:42:59.537Z,814.00
2023-05-06T04:43:59.488Z,814.00
2023-05-06T04:44:59.314Z,814.00
2023-05-06T04:45:59.239Z,815.00
2023-05-06T04:46:59.089Z,819.00
2023-05-06T04:47:59.024Z,820.00
2023-05-06T04:48:58.885Z,819.00
2023-05-06T04:49:58.778Z,819.00
2023-05-06T04:50:58.677Z,817.00
2023-05-06T04:51:58.564Z,815.00
2023-05-06T04:52:58.474Z,814.00
2023-05-06T04:53:58.359Z,815.00
2023-05-06T04:54:58.250Z,815.00
2023-05-06T04:55:58.141Z,813.00
2023-05-06T04:56:58.039Z,813.00
2023-05-06T04:57:57.946Z,816.00
2023-05-06T04:58:57.827Z,817.00
2023-05-06T04:59:57.782Z,818.00
2023-05-06T05:00:57.687Z,816.00
2023-05-06T05:01:57.637Z,816.00
2023-05-06T05:02:57.604Z,816.00
2023-05-06T05:03:57.468Z,812.00
2023-05-06T05:04:57.850Z,812.00
2023-05-06T05:05:57.311Z,813.00
2023-05-06T05:06:57.233Z,812.00
2023-05-06T05:07:57.146Z,814.00
2023-05-06T05:08:57.159Z,814.00
2023-05-06T05:09:56.972Z,813.00
2023-05-06T05:10:56.892Z,813.00
2023-05-06T05:11:56.794Z,812.00
2023-05-06T05:12:56.813Z,812.00
2023-05-06T05:13:57.725Z,814.00
2023-05-06T05:14:56.695Z,812.00
2023-05-06T05:15:56.725Z,811.00
2023-05-06T05:16:56.547Z,812.00
2023-05-06T05:17:56.501Z,810.00
2023-05-06T05:18:56.335Z,810.00
2023-05-06T05:19:56.232Z,810.00
2023-05-06T05:20:56.190Z,806.00
2023-05-06T05:21:56.113Z,803.00
2023-05-06T05:22:56.082Z,806.00
2023-05-06T05:23:56.042Z,805.00
2023-05-06T05:24:55.961Z,806.00
2023-05-06T05:25:55.912Z,807.00
2023-05-06T05:26:55.853Z,806.00
2023-05-06T05:27:55.810Z,806.00
2023-05-06T05:28:55.771Z,808.00
2023-05-06T05:29:55.711Z,805.00
2023-05-06T05:30:55.678Z,805.00
2023-05-06T05:31:55.595Z,803.00
2023-05-06T05:32:55.629Z,804.00
2023-05-06T05:33:55.520Z,802.00
2023-05-06T05:34:55.427Z,801.00
2023-05-06T05:35:55.346Z,799.00
2023-05-06T05:36:55.229Z,799.00
2023-05-06T05:37:55.151Z,801.00
2023-05-06T05:38:55.063Z,801.00
2023-05-06T05:39:54.967Z,799.00
2023-05-06T05:40:54.869Z,797.00
2023-05-06T05:41:54.792Z,798.00
2023-05-06T05:42:54.712Z,801.00
2023-05-06T05:43:54.617Z,802.00
2023-05-06T05:44:54.516Z,802.00
2023-05-06T05:45:54.476Z,804.00
2023-05-06T05:46:54.364Z,804.00
2023-05-06T05:47:54.409Z,800.00
2023-05-06T05:48:54.297Z,797.00
2023-05-06T05:49:54.289Z,796.00
2023-05-06T05:50:54.270Z,797.00
2023-05-06T05:51:54.254Z,797.00
2023-05-06T05:52:54.244Z,798.00
2023-05-06T05:53:54.230Z,798.00
2023-05-06T05:54:54.210Z,798.00
2023-05-06T05:55:54.335Z,803.00
2023-05-06T05:56:54.121Z,802.00
2023-05-06T05:57:54.051Z,802.00
2023-05-06T05:58:53.997Z,802.00
2023-05-06T05:59:53.923Z,803.00
2023-05-06T06:00:53.935Z,801.00
2023-05-06T06:01:53.774Z,799.00
2023-05-06T06:02:53.765Z,797.00
2023-05-06T06:03:53.708Z,802.00
2023-05-06T06:04:53.662Z,803.00
2023-05-06T06:05:53.556Z,802.00
2023-05-06T06:06:53.502Z,801.00
2023-05-06T06:07:53.378Z,800.00
2023-05-06T06:08:53.321Z,801.00
2023-05-06T06:09:53.223Z,802.00
2023-05-06T06:10:53.150Z,805.00
2023-05-06T06:11:53.083Z,803.00
2023-05-06T06:12:53.036Z,804.00
2023-05-06T06:13:53.096Z,801.00
2023-05-06T06:14:52.943Z,801.00
2023-05-06T06:15:52.936Z,801.00
2023-05-06T06:16:52.804Z,800.00
2023-05-06T06:17:52.736Z,801.00
2023-05-06T06:18:52.737Z,803.00
2023-05-06T06:19:52.679Z,799.00
2023-05-06T06:20:53.487Z,800.00
2023-05-06T06:21:52.452Z,799.00
2023-05-06T06:22:52.380Z,797.00
2023-05-06T06:23:52.302Z,796.00
2023-05-06T06:24:52.244Z,800.00
2023-05-06T06:25:52.234Z,801.00
2023-05-06T06:26:52.172Z,801.00
2023-05-06T06:27:52.163Z,801.00
2023-05-06T06:28:52.148Z,800.00
2023-05-06T06:29:52.061Z,801.00
2023-05-06T06:30:51.982Z,799.00
2023-05-06T06:31:51.935Z,799.00
2023-05-06T06:32:51.804Z,797.00
2023-05-06T06:33:51.645Z,796.00
2023-05-06T06:34:51.603Z,795.00
2023-05-06T06:35:51.737Z,796.00
2023-05-06T06:36:51.570Z,796.00
2023-05-06T06:37:51.554Z,796.00
2023-05-06T06:38:51.573Z,794.00
2023-05-06T06:39:51.537Z,797.00
2023-05-06T06:40:51.529Z,798.00
2023-05-06T06:41:51.451Z,797.00
2023-05-06T06:42:51.345Z,800.00
2023-05-06T06:43:51.328Z,802.00
2023-05-06T06:44:51.185Z,801.00
2023-05-06T06:45:51.160Z,801.00
2023-05-06T06:46:51.066Z,802.00
2023-05-06T06:47:50.985Z,798.00
2023-05-06T06:48:50.898Z,796.00
2023-05-06T06:49:50.860Z,796.00
2023-05-06T06:50:50.849Z,799.00
2023-05-06T06:51:50.754Z,800.00
2023-05-06T06:52:50.718Z,803.00
2023-05-06T06:53:50.659Z,805.00
2023-05-06T06:54:50.588Z,802.00
2023-05-06T06:55:50.555Z,801.00
2023-05-06T06:56:50.499Z,801.00
2023-05-06T06:57:50.467Z,802.00
2023-05-06T06:58:52.984Z,802.00
2023-05-06T06:59:50.317Z,802.00
2023-05-06T07:00:50.222Z,800.00
2023-05-06T07:01:50.108Z,799.00
2023-05-06T07:02:50.030Z,800.00
2023-05-06T07:03:49.934Z,799.00
2023-05-06T07:04:49.781Z,797.00
2023-05-06T07:05:49.684Z,796.00
2023-05-06T07:06:49.580Z,794.00
2023-05-06T07:07:49.516Z,799.00
2023-05-06T07:08:49.354Z,799.00
2023-05-06T07:09:49.248Z,800.00
2023-05-06T07:10:49.145Z,797.00
2023-05-06T07:11:49.022Z,797.00
2023-05-06T07:12:48.984Z,798.00
2023-05-06T07:13:48.816Z,800.00
2023-05-06T07:14:48.708Z,800.00
2023-05-06T07:15:48.608Z,799.00
2023-05-06T07:16:50.792Z,798.00
2023-05-06T07:17:48.445Z,801.00
2023-05-06T07:18:48.249Z,803.00
2023-05-06T07:19:48.153Z,805.00
2023-05-06T07:20:48.031Z,803.00
2023-05-06T07:21:47.924Z,801.00
2023-05-06T07:22:47.820Z,799.00
2023-05-06T07:23:47.824Z,799.00
2023-05-06T07:24:47.575Z,801.00
2023-05-06T07:25:47.470Z,800.00
2023-05-06T07:26:47.360Z,796.00
2023-05-06T07:27:47.240Z,795.00
2023-05-06T07:28:47.129Z,798.00
2023-05-06T07:29:47.011Z,801.00
2023-05-06T07:30:46.949Z,802.00
2023-05-06T07:31:46.814Z,803.00
2023-05-06T07:32:46.787Z,804.00
2023-05-06T07:33:46.584Z,801.00
2023-05-06T07:34:46.463Z,801.00
2023-05-06T07:35:46.372Z,801.00
2023-05-06T07:36:46.245Z,801.00
2023-05-06T07:37:46.118Z,800.00
2023-05-06T07:38:46.014Z,798.00
2023-05-06T07:39:46.144Z,796.00
2023-05-06T07:40:45.793Z,796.00
2023-05-06T07:41:45.670Z,796.00
2023-05-06T07:42:45.549Z,795.00
2023-05-06T07:43:45.442Z,793.00
2023-05-06T07:44:45.337Z,794.00
2023-05-06T07:45:45.224Z,794.00
2023-05-06T07:46:45.169Z,794.00
2023-05-06T07:47:45.069Z,794.00
2023-05-06T07:48:44.881Z,798.00
2023-05-06T07:49:44.787Z,797.00
2023-05-06T07:50:44.654Z,796.00
2023-05-06T07:51:44.546Z,798.00
2023-05-06T07:52:44.423Z,798.00
2023-05-06T07:53:44.307Z,797.00
2023-05-06T07:54:44.196Z,796.00
2023-05-06T07:55:44.081Z,795.00
2023-05-06T07:56:44.031Z,792.00
2023-05-06T07:57:44.054Z,789.00
2023-05-06T07:58:43.898Z,790.00
2023-05-06T07:59:43.810Z,790.00
2023-05-06T08:00:43.735Z,790.00
2023-05-06T08:01:43.684Z,788.00
2023-05-06T08:02:43.720Z,789.00
2023-05-06T08:03:43.884Z,788.00
2023-05-06T08:04:43.707Z,789.00
2023-05-06T08:05:43.511Z,789.00
2023-05-06T08:06:43.465Z,787.00
2023-05-06T08:07:43.424Z,787.00
2023-05-06T08:08:43.347Z,786.00
2023-05-06T08:09:43.277Z,787.00
2023-05-06T08:10:43.239Z,788.00
2023-05-06T08:11:43.187Z,787.00
2023-05-06T08:12:43.156Z,786.00
2023-05-06T08:13:43.054Z,787.00
2023-05-06T08:14:43.022Z,786.00
2023-05-06T08:15:42.950Z,784.00
2023-05-06T08:16:42.961Z,786.00
2023-05-06T08:17:42.868Z,786.00
2023-05-06T08:18:42.773Z,787.00
2023-05-06T08:19:42.661Z,788.00
2023-05-06T08:20:42.569Z,788.00
2023-05-06T08:21:42.457Z,785.00
2023-05-06T08:22:42.435Z,787.00
2023-05-06T08:23:42.411Z,788.00
2023-05-06T08:24:42.396Z,786.00
2023-05-06T08:25:42.367Z,784.00
2023-05-06T08:26:42.335Z,781.00
2023-05-06T08:27:42.543Z,784.00
2023-05-06T08:28:42.287Z,782.00
2023-05-06T08:29:42.208Z,780.00
2023-05-06T08:30:42.126Z,780.00
2023-05-06T08:31:42.090Z,778.00
2023-05-06T08:32:42.010Z,778.00
2023-05-06T08:33:41.902Z,778.00
2023-05-06T08:34:41.832Z,780.00
2023-05-06T08:35:41.782Z,780.00
2023-05-06T08:36:41.715Z,779.00
2023-05-06T08:37:41.626Z,778.00
2023-05-06T08:38:41.605Z,778.00
2023-05-06T08:39:41.589Z,777.00
2023-05-06T08:40:41.565Z,780.00
2023-05-06T08:41:41.533Z,780.00
2023-05-06T08:42:41.507Z,778.00
2023-05-06T08:43:41.490Z,777.00
2023-05-06T08:44:41.483Z,776.00
2023-05-06T08:45:41.443Z,778.00
2023-05-06T08:46:41.360Z,779.00
2023-05-06T08:47:41.355Z,779.00
2023-05-06T08:48:41.205Z,780.00
2023-05-06T08:49:41.156Z,780.00
2023-05-06T08:50:41.099Z,778.00
2023-05-06T08:51:40.999Z,781.00
2023-05-06T08:52:40.968Z,781.00
2023-05-06T08:53:40.913Z,783.00
2023-05-06T08:54:40.856Z,782.00
2023-05-06T08:55:40.788Z,781.00
2023-05-06T08:56:40.746Z,781.00
2023-05-06T08:57:40.708Z,780.00
2023-05-06T08:58:40.685Z,782.00
2023-05-06T08:59:40.723Z,784.00
2023-05-06T09:00:40.633Z,784.00
2023-05-06T09:01:40.743Z,786.00
2023-05-06T09:02:42.815Z,786.00
2023-05-06T09:03:40.519Z,782.00
2023-05-06T09:04:40.365Z,780.00
2023-05-06T09:05:40.259Z,780.00
2023-05-06T09:06:40.120Z,778.00
2023-05-06T09:07:40.010Z,779.00
2023-05-06T09:08:39.917Z,779.00
2023-05-06T09:09:39.801Z,781.00
2023-05-06T09:10:39.671Z,781.00
2023-05-06T09:11:39.557Z,780.00
2023-05-06T09:12:39.497Z,779.00
2023-05-06T09:13:39.338Z,780.00
2023-05-06T09:14:39.228Z,783.00
2023-05-06T09:15:39.121Z,785.00
2023-05-06T09:16:39.003Z,783.00
2023-05-06T09:17:38.907Z,782.00
2023-05-06T09:18:38.771Z,783.00
2023-05-06T09:19:38.656Z,781.00
2023-05-06T09:20:38.558Z,781.00
2023-05-06T09:21:38.448Z,781.00
2023-05-06T09:22:38.339Z,781.00
2023-05-06T09:23:38.235Z,779.00
2023-05-06T09:24:38.117Z,778.00
2023-05-06T09:25:38.005Z,780.00
2023-05-06T09:26:37.901Z,782.00
2023-05-06T09:27:37.860Z,782.00
2023-05-06T09:28:37.666Z,782.00
2023-05-06T09:29:37.546Z,781.00
2023-05-06T09:30:37.441Z,780.00
2023-05-06T09:31:37.483Z,779.00
2023-05-06T09:32:40.011Z,777.00
2023-05-06T09:33:37.079Z,777.00
2023-05-06T09:34:36.956Z,776.00
2023-05-06T09:35:36.863Z,776.00
2023-05-06T09:36:36.733Z,776.00
2023-05-06T09:37:36.639Z,778.00
2023-05-06T09:38:36.526Z,781.00
2023-05-06T09:39:36.406Z,779.00
2023-05-06T09:40:36.303Z,780.00
2023-05-06T09:41:36.185Z,780.00
2023-05-06T09:42:36.079Z,778.00
2023-05-06T09:43:35.967Z,778.00
2023-05-06T09:44:35.860Z,776.00
2023-05-06T09:45:35.754Z,773.00
2023-05-06T09:46:35.656Z,773.00
2023-05-06T09:47:35.732Z,774.00
2023-05-06T09:48:35.434Z,773.00
2023-05-06T09:49:35.315Z,774.00
2023-05-06T09:50:35.204Z,776.00
2023-05-06T09:51:35.087Z,777.00
2023-05-06T09:52:35.004Z,777.00
2023-05-06T09:53:34.870Z,776.00
2023-05-06T09:54:34.736Z,776.00
2023-05-06T09:55:34.631Z,776.00
2023-05-06T09:56:34.505Z,773.00
2023-05-06T09:57:34.395Z,772.00
2023-05-06T09:58:34.274Z,771.00
2023-05-06T09:59:34.158Z,772.00
2023-05-06T10:00:34.048Z,771.00
2023-05-06T10:01:37.163Z,771.00
2023-05-06T10:02:33.927Z,771.00
2023-05-06T10:03:33.900Z,772.00
2023-05-06T10:04:33.828Z,772.00
2023-05-06T10:05:33.473Z,774.00
2023-05-06T10:06:33.353Z,776.00
2023-05-06T10:07:33.235Z,777.00
2023-05-06T10:08:33.126Z,774.00
2023-05-06T10:09:32.999Z,771.00
2023-05-06T10:10:32.891Z,771.00
2023-05-06T10:11:32.774Z,772.00
2023-05-06T10:12:32.708Z,774.00
2023-05-06T10:13:32.559Z,772.00
2023-05-06T10:14:32.432Z,772.00
2023-05-06T10:15:32.329Z,773.00
2023-05-06T10:16:32.267Z,774.00
2023-05-06T10:17:32.093Z,775.00
2023-05-06T10:18:31.996Z,775.00
2023-05-06T10:19:31.925Z,772.00
2023-05-06T10:20:31.764Z,771.00
2023-05-06T10:21:31.654Z,770.00
2023-05-06T10:22:31.571Z,773.00
2023-05-06T10:23:31.441Z,774.00
2023-05-06T10:24:31.319Z,774.00
2023-05-06T10:25:31.234Z,777.00
2023-05-06T10:26:31.097Z,777.00
2023-05-06T10:27:30.966Z,777.00
2023-05-06T10:28:31.818Z,774.00
2023-05-06T10:29:30.800Z,773.00
2023-05-06T10:30:30.746Z,774.00
2023-05-06T10:31:30.689Z,772.00
2023-05-06T10:32:30.662Z,770.00
2023-05-06T10:33:30.588Z,770.00
2023-05-06T10:34:30.522Z,770.00
2023-05-06T10:35:30.466Z,769.00
2023-05-06T10:36:30.414Z,768.00
2023-05-06T10:37:30.358Z,769.00
2023-05-06T10:38:30.313Z,766.00
2023-05-06T10:39:30.234Z,764.00
2023-05-06T10:40:30.186Z,764.00
2023-05-06T10:41:30.137Z,762.00
2023-05-06T10:42:30.067Z,764.00
2023-05-06T10:43:30.020Z,767.00
2023-05-06T10:44:29.960Z,768.00
2023-05-06T10:45:29.954Z,766.00
2023-05-06T10:46:29.845Z,770.00
2023-05-06T10:47:29.786Z,772.00
2023-05-06T10:48:29.720Z,770.00
2023-05-06T10:49:29.658Z,772.00
2023-05-06T10:50:29.616Z,771.00
2023-05-06T10:51:29.605Z,771.00
2023-05-06T10:52:29.496Z,767.00
2023-05-06T10:53:29.434Z,766.00
2023-05-06T10:54:29.371Z,764.00
2023-05-06T10:55:29.311Z,763.00
2023-05-06T10:56:29.257Z,761.00
2023-05-06T10:57:29.198Z,757.00
2023-05-06T10:58:29.148Z,759.00
2023-05-06T10:59:29.083Z,759.00
2023-05-06T11:00:29.023Z,758.00
2023-05-06T11:01:29.065Z,759.00
2023-05-06T11:02:28.914Z,758.00
2023-05-06T11:03:28.886Z,758.00
2023-05-06T11:04:28.760Z,758.00
2023-05-06T11:05:28.684Z,757.00
2023-05-06T11:06:28.620Z,759.00
2023-05-06T11:07:28.645Z,760.00
2023-05-06T11:08:28.506Z,762.00
2023-05-06T11:09:28.441Z,762.00
2023-05-06T11:10:28.363Z,764.00
2023-05-06T11:11:28.293Z,766.00
2023-05-06T11:12:28.229Z,767.00
2023-05-06T11:13:28.441Z,768.00
2023-05-06T11:14:28.112Z,767.00
2023-05-06T11:15:28.044Z,763.00
2023-05-06T11:16:28.026Z,762.00
2023-05-06T11:17:27.936Z,761.00
2023-05-06T11:18:27.857Z,759.00
2023-05-06T11:19:27.794Z,757.00
2023-05-06T11:20:27.754Z,756.00
2023-05-06T11:21:27.649Z,759.00
2023-05-06T11:22:27.590Z,760.00
2023-05-06T11:23:27.591Z,760.00
2023-05-06T11:24:27.448Z,758.00
2023-05-06T11:25:27.374Z,758.00
2023-05-06T11:26:27.331Z,755.00
2023-05-06T11:27:27.242Z,757.00
2023-05-06T11:28:27.167Z,756.00
2023-05-06T11:29:27.134Z,757.00
2023-05-06T11:30:27.042Z,755.00
2023-05-06T11:31:27.031Z,756.00
2023-05-06T11:32:26.938Z,758.00
2023-05-06T11:33:26.858Z,759.00
2023-05-06T11:34:26.806Z,759.00
2023-05-06T11:35:26.732Z,760.00
2023-05-06T11:36:26.668Z,760.00
2023-05-06T11:37:26.656Z,761.00
2023-05-06T11:38:26.558Z,760.00
2023-05-06T11:39:26.545Z,755.00
2023-05-06T11:40:26.429Z,754.00
2023-05-06T11:41:26.366Z,754.00
2023-05-06T11:42:26.299Z,752.00
2023-05-06T11:43:26.232Z,754.00
2023-05-06T11:44:26.166Z,753.00
2023-05-06T11:45:26.118Z,752.00
2023-05-06T11:46:26.069Z,755.00
2023-05-06T11:47:25.974Z,760.00
2023-05-06T11:48:25.884Z,760.00
2023-05-06T11:49:25.800Z,756.00
2023-05-06T11:50:25.708Z,754.00
2023-05-06T11:51:25.640Z,753.00
2023-05-06T11:52:25.557Z,755.00
2023-05-06T11:53:25.485Z,755.00
2023-05-06T11:54:25.424Z,754.00
2023-05-06T11:55:25.401Z,754.00
2023-05-06T11:56:25.276Z,755.00
2023-05-06T11:57:25.197Z,757.00
2023-05-06T11:58:25.110Z,756.00
2023-05-06T11:59:25.039Z,756.00
2023-05-06T12:00:24.958Z,753.00
2023-05-06T12:01:24.890Z,753.00
2023-05-06T12:02:24.867Z,753.00
2023-05-06T12:03:24.973Z,750.00
2023-05-06T12:04:24.759Z,748.00
2023-05-06T12:05:24.608Z,747.00
2023-05-06T12:06:24.661Z,752.00
2023-05-06T12:07:24.465Z,751.00
2023-05-06T12:08:27.849Z,749.00
2023-05-06T12:09:24.283Z,749.00
2023-05-06T12:10:24.146Z,744.00
2023-05-06T12:11:24.136Z,742.00
2023-05-06T12:12:23.941Z,743.00
2023-05-06T12:13:23.817Z,740.00
2023-05-06T12:14:23.652Z,740.00
2023-05-06T12:15:23.526Z,739.00
2023-05-06T12:16:23.418Z,739.00
2023-05-06T12:17:23.291Z,740.00
2023-05-06T12:18:23.166Z,742.00
2023-05-06T12:19:23.056Z,743.00
2023-05-06T12:20:22.940Z,739.00
2023-05-06T12:21:22.803Z,738.00
2023-05-06T12:22:22.714Z,738.00
2023-05-06T12:23:22.553Z,738.00
2023-05-06T12:24:22.455Z,738.00
2023-05-06T12:25:22.326Z,738.00
2023-05-06T12:26:22.216Z,741.00
2023-05-06T12:27:22.096Z,739.00